sensor_id;sensor_type;location;lat;lon;timestamp;P1;durP1;ratioP1;P2;durP2;ratioP2
53971;SDS011;40530;53.062;6.078;2023-03-01T00:00:21;21.98;;;13.48;;
53971;SDS011;40530;53.062;6.078;2023-03-01T00:02:47;20.52;;;12.77;;
53971;SDS011;40530;53.062;6.078;2023-03-01T00:05:13;29.92;;;16.27;;
53971;SDS011;40530;53.062;6.078;2023-03-01T00:07:40;26.77;;;16.55;;
53971;SDS011;40530;53.062;6.078;2023-03-01T00:10:06;29.17;;;17.13;;
53971;SDS011;40530;53.062;6.078;2023-03-01T00:12:32;33.33;;;17.65;;
53971;SDS011;40530;53.062;6.078;2023-03-01T00:14:58;29.10;;;15.45;;
53971;SDS011;40530;53.062;6.078;2023-03-01T00:17:24;27.27;;;16.55;;
53971;SDS011;40530;53.062;6.078;2023-03-01T00:19:50;23.13;;;14.77;;
53971;SDS011;40530;53.062;6.078;2023-03-01T00:22:16;35.35;;;18.58;;
53971;SDS011;40530;53.062;6.078;2023-03-01T00:24:42;29.45;;;16.88;;
53971;SDS011;40530;53.062;6.078;2023-03-01T00:27:08;31.10;;;18.13;;
53971;SDS011;40530;53.062;6.078;2023-03-01T00:29:34;39.03;;;20.25;;
53971;SDS011;40530;53.062;6.078;2023-03-01T00:32:00;35.05;;;18.10;;
53971;SDS011;40530;53.062;6.078;2023-03-01T00:34:26;46.00;;;20.98;;
53971;SDS011;40530;53.062;6.078;2023-03-01T00:36:52;36.00;;;18.92;;
53971;SDS011;40530;53.062;6.078;2023-03-01T00:39:18;44.15;;;20.92;;
53971;SDS011;40530;53.062;6.078;2023-03-01T00:41:44;41.25;;;19.98;;
53971;SDS011;40530;53.062;6.078;2023-03-01T00:44:10;39.13;;;20.77;;
53971;SDS011;40530;53.062;6.078;2023-03-01T00:46:36;29.95;;;17.42;;
53971;SDS011;40530;53.062;6.078;2023-03-01T00:49:03;25.13;;;13.68;;
53971;SDS011;40530;53.062;6.078;2023-03-01T00:51:29;18.77;;;12.55;;
53971;SDS011;40530;53.062;6.078;2023-03-01T00:53:57;21.85;;;12.77;;
53971;SDS011;40530;53.062;6.078;2023-03-01T00:56:23;19.67;;;12.88;;
53971;SDS011;40530;53.062;6.078;2023-03-01T00:58:49;22.25;;;12.88;;
53971;SDS011;40530;53.062;6.078;2023-03-01T01:01:16;19.75;;;12.93;;
53971;SDS011;40530;53.062;6.078;2023-03-01T01:03:44;18.83;;;12.95;;
53971;SDS011;40530;53.062;6.078;2023-03-01T01:06:14;20.98;;;13.55;;
53971;SDS011;40530;53.062;6.078;2023-03-01T01:08:40;20.65;;;13.07;;
53971;SDS011;40530;53.062;6.078;2023-03-01T01:11:08;20.95;;;12.82;;
53971;SDS011;40530;53.062;6.078;2023-03-01T01:13:34;22.08;;;13.23;;
53971;SDS011;40530;53.062;6.078;2023-03-01T01:16:00;25.73;;;15.23;;
53971;SDS011;40530;53.062;6.078;2023-03-01T01:18:27;22.80;;;14.38;;
53971;SDS011;40530;53.062;6.078;2023-03-01T01:20:54;21.75;;;13.52;;
53971;SDS011;40530;53.062;6.078;2023-03-01T01:23:20;21.42;;;14.55;;
53971;SDS011;40530;53.062;6.078;2023-03-01T01:25:46;28.50;;;15.90;;
53971;SDS011;40530;53.062;6.078;2023-03-01T01:28:12;25.23;;;14.90;;
53971;SDS011;40530;53.062;6.078;2023-03-01T01:30:38;30.98;;;17.05;;
53971;SDS011;40530;53.062;6.078;2023-03-01T01:33:04;28.48;;;16.48;;
53971;SDS011;40530;53.062;6.078;2023-03-01T01:35:30;26.90;;;16.35;;
53971;SDS011;40530;53.062;6.078;2023-03-01T01:37:56;25.13;;;16.30;;
53971;SDS011;40530;53.062;6.078;2023-03-01T01:40:22;47.00;;;15.95;;
53971;SDS011;40530;53.062;6.078;2023-03-01T01:42:48;50.65;;;17.77;;
53971;SDS011;40530;53.062;6.078;2023-03-01T01:45:25;110.45;;;19.63;;
53971;SDS011;40530;53.062;6.078;2023-03-01T01:47:52;39.42;;;16.70;;
53971;SDS011;40530;53.062;6.078;2023-03-01T01:50:19;32.30;;;18.88;;
53971;SDS011;40530;53.062;6.078;2023-03-01T01:52:46;38.08;;;19.27;;
53971;SDS011;40530;53.062;6.078;2023-03-01T01:55:15;30.45;;;18.10;;
53971;SDS011;40530;53.062;6.078;2023-03-01T01:57:43;28.67;;;18.05;;
53971;SDS011;40530;53.062;6.078;2023-03-01T02:00:12;32.30;;;17.92;;
53971;SDS011;40530;53.062;6.078;2023-03-01T02:02:39;28.25;;;17.73;;
53971;SDS011;40530;53.062;6.078;2023-03-01T02:07:52;42.47;;;18.17;;
53971;SDS011;40530;53.062;6.078;2023-03-01T02:10:19;52.45;;;20.27;;
53971;SDS011;40530;53.062;6.078;2023-03-01T02:12:45;78.07;;;21.23;;
53971;SDS011;40530;53.062;6.078;2023-03-01T02:15:11;159.00;;;22.90;;
53971;SDS011;40530;53.062;6.078;2023-03-01T02:17:37;82.80;;;19.85;;
53971;SDS011;40530;53.062;6.078;2023-03-01T02:22:32;255.65;;;27.65;;
53971;SDS011;40530;53.062;6.078;2023-03-01T02:27:47;276.58;;;30.08;;
53971;SDS011;40530;53.062;6.078;2023-03-01T02:30:15;281.10;;;30.55;;
53971;SDS011;40530;53.062;6.078;2023-03-01T02:32:41;172.70;;;27.27;;
53971;SDS011;40530;53.062;6.078;2023-03-01T02:35:09;214.25;;;26.77;;
53971;SDS011;40530;53.062;6.078;2023-03-01T02:37:36;273.08;;;33.70;;
53971;SDS011;40530;53.062;6.078;2023-03-01T02:40:03;499.08;;;33.78;;
53971;SDS011;40530;53.062;6.078;2023-03-01T02:42:32;297.60;;;25.63;;
53971;SDS011;40530;53.062;6.078;2023-03-01T02:44:59;319.80;;;27.75;;
53971;SDS011;40530;53.062;6.078;2023-03-01T02:47:25;232.13;;;27.27;;
53971;SDS011;40530;53.062;6.078;2023-03-01T02:49:51;250.50;;;26.95;;
53971;SDS011;40530;53.062;6.078;2023-03-01T02:54:46;300.67;;;25.38;;
53971;SDS011;40530;53.062;6.078;2023-03-01T02:57:14;284.27;;;25.13;;
53971;SDS011;40530;53.062;6.078;2023-03-01T02:59:41;220.80;;;24.25;;
53971;SDS011;40530;53.062;6.078;2023-03-01T03:02:17;190.32;;;22.92;;
53971;SDS011;40530;53.062;6.078;2023-03-01T03:04:45;162.80;;;21.52;;
53971;SDS011;40530;53.062;6.078;2023-03-01T03:07:11;237.45;;;25.95;;
53971;SDS011;40530;53.062;6.078;2023-03-01T03:09:37;171.75;;;22.52;;
53971;SDS011;40530;53.062;6.078;2023-03-01T03:12:03;245.60;;;23.95;;
53971;SDS011;40530;53.062;6.078;2023-03-01T03:14:29;151.05;;;23.13;;
53971;SDS011;40530;53.062;6.078;2023-03-01T03:16:59;216.55;;;25.42;;
53971;SDS011;40530;53.062;6.078;2023-03-01T03:19:25;220.07;;;26.25;;
53971;SDS011;40530;53.062;6.078;2023-03-01T03:21:52;165.05;;;23.35;;
53971;SDS011;40530;53.062;6.078;2023-03-01T03:24:18;184.68;;;22.08;;
53971;SDS011;40530;53.062;6.078;2023-03-01T03:26:44;208.30;;;24.65;;
53971;SDS011;40530;53.062;6.078;2023-03-01T03:29:10;375.35;;;28.30;;
53971;SDS011;40530;53.062;6.078;2023-03-01T03:31:36;152.88;;;20.63;;
53971;SDS011;40530;53.062;6.078;2023-03-01T03:34:02;102.70;;;22.17;;
53971;SDS011;40530;53.062;6.078;2023-03-01T03:36:28;45.90;;;19.73;;
53971;SDS011;40530;53.062;6.078;2023-03-01T03:38:54;29.08;;;18.00;;
53971;SDS011;40530;53.062;6.078;2023-03-01T03:41:20;28.98;;;17.02;;
53971;SDS011;40530;53.062;6.078;2023-03-01T03:43:46;32.15;;;18.60;;
53971;SDS011;40530;53.062;6.078;2023-03-01T03:46:13;35.65;;;19.63;;
53971;SDS011;40530;53.062;6.078;2023-03-01T03:48:41;28.25;;;17.88;;
53971;SDS011;40530;53.062;6.078;2023-03-01T03:51:09;30.30;;;17.25;;
53971;SDS011;40530;53.062;6.078;2023-03-01T03:53:35;26.55;;;16.98;;
53971;SDS011;40530;53.062;6.078;2023-03-01T03:56:01;26.23;;;16.92;;
53971;SDS011;40530;53.062;6.078;2023-03-01T03:58:28;26.17;;;15.88;;
53971;SDS011;40530;53.062;6.078;2023-03-01T04:00:55;30.38;;;18.45;;
53971;SDS011;40530;53.062;6.078;2023-03-01T04:03:22;30.23;;;17.95;;
53971;SDS011;40530;53.062;6.078;2023-03-01T04:05:48;33.80;;;15.82;;
53971;SDS011;40530;53.062;6.078;2023-03-01T04:08:15;63.38;;;31.35;;
53971;SDS011;40530;53.062;6.078;2023-03-01T04:10:45;40.78;;;18.25;;
53971;SDS011;40530;53.062;6.078;2023-03-01T04:13:14;107.13;;;23.67;;
53971;SDS011;40530;53.062;6.078;2023-03-01T04:15:40;103.30;;;15.18;;
53971;SDS011;40530;53.062;6.078;2023-03-01T04:18:08;243.93;;;18.30;;
53971;SDS011;40530;53.062;6.078;2023-03-01T04:20:34;202.82;;;16.80;;
53971;SDS011;40530;53.062;6.078;2023-03-01T04:28:22;21.50;;;11.80;;
53971;SDS011;40530;53.062;6.078;2023-03-01T04:30:52;18.23;;;11.57;;
53971;SDS011;40530;53.062;6.078;2023-03-01T04:33:18;17.63;;;11.68;;
53971;SDS011;40530;53.062;6.078;2023-03-01T04:35:44;17.45;;;10.95;;
53971;SDS011;40530;53.062;6.078;2023-03-01T04:38:10;15.60;;;10.35;;
53971;SDS011;40530;53.062;6.078;2023-03-01T04:40:37;19.50;;;12.55;;
53971;SDS011;40530;53.062;6.078;2023-03-01T04:43:03;17.48;;;11.80;;
53971;SDS011;40530;53.062;6.078;2023-03-01T04:45:29;15.93;;;10.55;;
53971;SDS011;40530;53.062;6.078;2023-03-01T04:47:57;16.77;;;10.70;;
53971;SDS011;40530;53.062;6.078;2023-03-01T04:50:23;20.70;;;9.65;;
53971;SDS011;40530;53.062;6.078;2023-03-01T04:52:50;13.70;;;9.02;;
53971;SDS011;40530;53.062;6.078;2023-03-01T04:55:16;12.30;;;8.50;;
53971;SDS011;40530;53.062;6.078;2023-03-01T04:57:42;13.90;;;8.80;;
53971;SDS011;40530;53.062;6.078;2023-03-01T05:00:10;31.80;;;17.42;;
53971;SDS011;40530;53.062;6.078;2023-03-01T05:05:18;17.67;;;11.35;;
53971;SDS011;40530;53.062;6.078;2023-03-01T05:07:44;11.73;;;9.13;;
53971;SDS011;40530;53.062;6.078;2023-03-01T05:10:10;12.43;;;8.10;;
53971;SDS011;40530;53.062;6.078;2023-03-01T05:12:36;8.20;;;6.72;;
53971;SDS011;40530;53.062;6.078;2023-03-01T05:15:03;10.40;;;7.00;;
53971;SDS011;40530;53.062;6.078;2023-03-01T05:17:32;8.18;;;6.30;;
53971;SDS011;40530;53.062;6.078;2023-03-01T05:19:58;8.73;;;6.70;;
53971;SDS011;40530;53.062;6.078;2023-03-01T05:22:24;10.10;;;7.00;;
53971;SDS011;40530;53.062;6.078;2023-03-01T05:24:50;9.63;;;6.97;;
53971;SDS011;40530;53.062;6.078;2023-03-01T05:27:19;9.55;;;7.43;;
53971;SDS011;40530;53.062;6.078;2023-03-01T05:29:47;12.93;;;7.47;;
53971;SDS011;40530;53.062;6.078;2023-03-01T05:32:13;9.30;;;7.00;;
53971;SDS011;40530;53.062;6.078;2023-03-01T05:34:40;10.45;;;7.85;;
53971;SDS011;40530;53.062;6.078;2023-03-01T05:37:07;13.00;;;8.77;;
53971;SDS011;40530;53.062;6.078;2023-03-01T05:39:33;12.48;;;8.70;;
53971;SDS011;40530;53.062;6.078;2023-03-01T05:42:00;11.98;;;8.60;;
53971;SDS011;40530;53.062;6.078;2023-03-01T05:44:27;13.93;;;9.48;;
53971;SDS011;40530;53.062;6.078;2023-03-01T05:46:53;13.90;;;9.38;;
53971;SDS011;40530;53.062;6.078;2023-03-01T05:49:19;12.23;;;9.32;;
53971;SDS011;40530;53.062;6.078;2023-03-01T05:51:49;11.80;;;8.50;;
53971;SDS011;40530;53.062;6.078;2023-03-01T05:54:16;12.98;;;8.00;;
53971;SDS011;40530;53.062;6.078;2023-03-01T05:56:42;11.30;;;8.40;;
53971;SDS011;40530;53.062;6.078;2023-03-01T05:59:08;12.77;;;8.00;;
53971;SDS011;40530;53.062;6.078;2023-03-01T06:01:35;11.52;;;7.97;;
53971;SDS011;40530;53.062;6.078;2023-03-01T06:04:01;10.05;;;7.85;;
53971;SDS011;40530;53.062;6.078;2023-03-01T06:06:27;10.75;;;7.38;;
53971;SDS011;40530;53.062;6.078;2023-03-01T06:08:53;11.45;;;8.38;;
53971;SDS011;40530;53.062;6.078;2023-03-01T06:11:20;10.88;;;7.70;;
53971;SDS011;40530;53.062;6.078;2023-03-01T06:13:46;9.95;;;7.07;;
53971;SDS011;40530;53.062;6.078;2023-03-01T06:16:13;10.30;;;7.60;;
53971;SDS011;40530;53.062;6.078;2023-03-01T06:18:39;10.95;;;8.07;;
53971;SDS011;40530;53.062;6.078;2023-03-01T06:21:06;10.02;;;7.63;;
53971;SDS011;40530;53.062;6.078;2023-03-01T06:23:33;11.77;;;7.22;;
53971;SDS011;40530;53.062;6.078;2023-03-01T06:26:04;10.60;;;7.38;;
53971;SDS011;40530;53.062;6.078;2023-03-01T06:28:30;9.60;;;7.00;;
53971;SDS011;40530;53.062;6.078;2023-03-01T06:30:58;10.40;;;7.97;;
53971;SDS011;40530;53.062;6.078;2023-03-01T06:33:24;8.88;;;6.93;;
53971;SDS011;40530;53.062;6.078;2023-03-01T06:35:51;9.43;;;7.03;;
53971;SDS011;40530;53.062;6.078;2023-03-01T06:38:17;8.43;;;7.05;;
53971;SDS011;40530;53.062;6.078;2023-03-01T06:40:44;9.32;;;6.88;;
53971;SDS011;40530;53.062;6.078;2023-03-01T06:43:10;9.70;;;7.32;;
53971;SDS011;40530;53.062;6.078;2023-03-01T06:45:37;11.00;;;7.65;;
53971;SDS011;40530;53.062;6.078;2023-03-01T06:48:04;8.65;;;6.65;;
53971;SDS011;40530;53.062;6.078;2023-03-01T06:50:31;10.80;;;7.35;;
53971;SDS011;40530;53.062;6.078;2023-03-01T06:52:57;8.95;;;7.28;;
53971;SDS011;40530;53.062;6.078;2023-03-01T06:55:24;9.23;;;7.47;;
53971;SDS011;40530;53.062;6.078;2023-03-01T06:57:57;10.43;;;7.47;;
53971;SDS011;40530;53.062;6.078;2023-03-01T07:00:23;9.70;;;7.35;;
53971;SDS011;40530;53.062;6.078;2023-03-01T07:02:50;10.73;;;8.07;;
53971;SDS011;40530;53.062;6.078;2023-03-01T07:05:16;9.90;;;7.88;;
53971;SDS011;40530;53.062;6.078;2023-03-01T07:07:42;9.52;;;7.60;;
53971;SDS011;40530;53.062;6.078;2023-03-01T07:10:09;9.50;;;7.43;;
53971;SDS011;40530;53.062;6.078;2023-03-01T07:12:35;8.57;;;6.75;;
53971;SDS011;40530;53.062;6.078;2023-03-01T07:15:01;10.18;;;7.75;;
53971;SDS011;40530;53.062;6.078;2023-03-01T07:17:27;10.38;;;7.22;;
53971;SDS011;40530;53.062;6.078;2023-03-01T07:19:53;9.73;;;7.30;;
53971;SDS011;40530;53.062;6.078;2023-03-01T07:22:19;9.00;;;7.32;;
53971;SDS011;40530;53.062;6.078;2023-03-01T07:24:45;9.35;;;7.22;;
53971;SDS011;40530;53.062;6.078;2023-03-01T07:27:11;9.18;;;7.47;;
53971;SDS011;40530;53.062;6.078;2023-03-01T07:29:37;10.45;;;7.50;;
53971;SDS011;40530;53.062;6.078;2023-03-01T07:32:04;10.65;;;7.03;;
53971;SDS011;40530;53.062;6.078;2023-03-01T07:34:30;12.32;;;7.10;;
53971;SDS011;40530;53.062;6.078;2023-03-01T07:36:56;9.02;;;6.30;;
53971;SDS011;40530;53.062;6.078;2023-03-01T07:39:22;9.07;;;6.95;;
53971;SDS011;40530;53.062;6.078;2023-03-01T07:41:48;11.20;;;7.57;;
53971;SDS011;40530;53.062;6.078;2023-03-01T07:44:14;10.13;;;7.55;;
53971;SDS011;40530;53.062;6.078;2023-03-01T07:46:42;10.52;;;7.88;;
53971;SDS011;40530;53.062;6.078;2023-03-01T07:49:08;13.38;;;8.88;;
53971;SDS011;40530;53.062;6.078;2023-03-01T07:51:34;18.30;;;9.00;;
53971;SDS011;40530;53.062;6.078;2023-03-01T07:54:00;12.15;;;8.85;;
53971;SDS011;40530;53.062;6.078;2023-03-01T07:56:26;13.68;;;9.95;;
53971;SDS011;40530;53.062;6.078;2023-03-01T07:58:52;12.15;;;9.65;;
53971;SDS011;40530;53.062;6.078;2023-03-01T08:01:19;11.93;;;8.77;;
53971;SDS011;40530;53.062;6.078;2023-03-01T08:03:45;11.48;;;9.23;;
53971;SDS011;40530;53.062;6.078;2023-03-01T08:06:12;15.15;;;8.55;;
53971;SDS011;40530;53.062;6.078;2023-03-01T08:08:39;10.95;;;8.43;;
53971;SDS011;40530;53.062;6.078;2023-03-01T08:11:06;12.23;;;9.50;;
53971;SDS011;40530;53.062;6.078;2023-03-01T08:13:32;13.48;;;9.55;;
53971;SDS011;40530;53.062;6.078;2023-03-01T08:16:02;12.10;;;8.82;;
53971;SDS011;40530;53.062;6.078;2023-03-01T08:18:28;10.90;;;9.13;;
53971;SDS011;40530;53.062;6.078;2023-03-01T08:20:54;19.90;;;10.50;;
53971;SDS011;40530;53.062;6.078;2023-03-01T08:23:20;14.13;;;10.00;;
53971;SDS011;40530;53.062;6.078;2023-03-01T08:25:47;16.40;;;11.77;;
53971;SDS011;40530;53.062;6.078;2023-03-01T08:28:13;17.20;;;11.60;;
53971;SDS011;40530;53.062;6.078;2023-03-01T08:30:39;20.48;;;13.90;;
53971;SDS011;40530;53.062;6.078;2023-03-01T08:33:05;18.27;;;12.73;;
53971;SDS011;40530;53.062;6.078;2023-03-01T08:35:31;20.02;;;12.68;;
53971;SDS011;40530;53.062;6.078;2023-03-01T08:37:57;23.00;;;14.95;;
53971;SDS011;40530;53.062;6.078;2023-03-01T08:40:24;18.95;;;13.68;;
53971;SDS011;40530;53.062;6.078;2023-03-01T08:42:50;18.63;;;12.25;;
53971;SDS011;40530;53.062;6.078;2023-03-01T08:45:16;22.88;;;14.15;;
53971;SDS011;40530;53.062;6.078;2023-03-01T08:47:43;19.77;;;13.18;;
53971;SDS011;40530;53.062;6.078;2023-03-01T08:50:10;16.42;;;12.70;;
53971;SDS011;40530;53.062;6.078;2023-03-01T08:52:36;22.77;;;14.95;;
53971;SDS011;40530;53.062;6.078;2023-03-01T08:55:02;21.10;;;15.10;;
53971;SDS011;40530;53.062;6.078;2023-03-01T08:57:29;28.63;;;16.75;;
53971;SDS011;40530;53.062;6.078;2023-03-01T08:59:55;26.30;;;17.73;;
53971;SDS011;40530;53.062;6.078;2023-03-01T09:02:21;25.60;;;16.48;;
53971;SDS011;40530;53.062;6.078;2023-03-01T09:04:48;26.90;;;16.55;;
53971;SDS011;40530;53.062;6.078;2023-03-01T09:07:14;92.28;;;56.72;;
53971;SDS011;40530;53.062;6.078;2023-03-01T09:09:40;35.83;;;21.55;;
53971;SDS011;40530;53.062;6.078;2023-03-01T09:12:06;27.85;;;19.85;;
53971;SDS011;40530;53.062;6.078;2023-03-01T09:14:32;29.42;;;16.95;;
53971;SDS011;40530;53.062;6.078;2023-03-01T09:16:58;24.65;;;18.25;;
53971;SDS011;40530;53.062;6.078;2023-03-01T09:19:27;21.88;;;17.20;;
53971;SDS011;40530;53.062;6.078;2023-03-01T09:21:53;24.35;;;17.40;;
53971;SDS011;40530;53.062;6.078;2023-03-01T09:24:21;20.88;;;16.58;;
53971;SDS011;40530;53.062;6.078;2023-03-01T09:26:47;21.40;;;16.48;;
53971;SDS011;40530;53.062;6.078;2023-03-01T09:29:14;23.33;;;16.17;;
53971;SDS011;40530;53.062;6.078;2023-03-01T09:31:40;20.58;;;15.77;;
53971;SDS011;40530;53.062;6.078;2023-03-01T09:34:07;20.95;;;16.45;;
53971;SDS011;40530;53.062;6.078;2023-03-01T09:36:33;19.77;;;15.85;;
53971;SDS011;40530;53.062;6.078;2023-03-01T09:38:59;19.95;;;14.45;;
53971;SDS011;40530;53.062;6.078;2023-03-01T09:41:42;20.45;;;13.52;;
53971;SDS011;40530;53.062;6.078;2023-03-01T09:46:45;16.67;;;12.48;;
53971;SDS011;40530;53.062;6.078;2023-03-01T09:49:12;14.10;;;11.10;;
53971;SDS011;40530;53.062;6.078;2023-03-01T09:51:41;25.70;;;18.05;;
53971;SDS011;40530;53.062;6.078;2023-03-01T09:54:08;20.65;;;14.32;;
53971;SDS011;40530;53.062;6.078;2023-03-01T09:56:46;15.63;;;10.52;;
53971;SDS011;40530;53.062;6.078;2023-03-01T10:07:27;11.75;;;8.63;;
53971;SDS011;40530;53.062;6.078;2023-03-01T10:09:45;9.52;;;7.85;;
53971;SDS011;40530;53.062;6.078;2023-03-01T10:12:18;11.32;;;8.32;;
53971;SDS011;40530;53.062;6.078;2023-03-01T10:14:55;10.57;;;8.60;;
53971;SDS011;40530;53.062;6.078;2023-03-01T10:17:43;11.45;;;8.68;;
53971;SDS011;40530;53.062;6.078;2023-03-01T10:20:14;11.18;;;8.93;;
53971;SDS011;40530;53.062;6.078;2023-03-01T10:22:41;10.40;;;8.52;;
53971;SDS011;40530;53.062;6.078;2023-03-01T10:25:08;14.77;;;8.82;;
53971;SDS011;40530;53.062;6.078;2023-03-01T10:30:25;10.32;;;7.80;;
53971;SDS011;40530;53.062;6.078;2023-03-01T10:32:55;9.80;;;7.50;;
53971;SDS011;40530;53.062;6.078;2023-03-01T10:35:23;11.05;;;7.82;;
53971;SDS011;40530;53.062;6.078;2023-03-01T10:40:24;14.52;;;9.00;;
53971;SDS011;40530;53.062;6.078;2023-03-01T10:42:50;13.75;;;9.02;;
53971;SDS011;40530;53.062;6.078;2023-03-01T10:50:30;11.88;;;8.57;;
53971;SDS011;40530;53.062;6.078;2023-03-01T10:53:03;9.48;;;8.25;;
53971;SDS011;40530;53.062;6.078;2023-03-01T10:55:31;8.30;;;6.82;;
53971;SDS011;40530;53.062;6.078;2023-03-01T11:00:35;9.48;;;6.85;;
53971;SDS011;40530;53.062;6.078;2023-03-01T11:03:12;8.38;;;7.07;;
53971;SDS011;40530;53.062;6.078;2023-03-01T11:05:50;10.20;;;7.50;;
53971;SDS011;40530;53.062;6.078;2023-03-01T11:08:26;9.88;;;7.18;;
53971;SDS011;40530;53.062;6.078;2023-03-01T11:11:03;8.68;;;7.15;;
53971;SDS011;40530;53.062;6.078;2023-03-01T11:13:29;10.90;;;7.78;;
53971;SDS011;40530;53.062;6.078;2023-03-01T11:15:59;9.38;;;7.28;;
53971;SDS011;40530;53.062;6.078;2023-03-01T11:18:26;12.75;;;8.23;;
53971;SDS011;40530;53.062;6.078;2023-03-01T11:20:53;10.48;;;7.80;;
53971;SDS011;40530;53.062;6.078;2023-03-01T11:23:21;9.82;;;8.27;;
53971;SDS011;40530;53.062;6.078;2023-03-01T11:25:53;11.27;;;8.75;;
53971;SDS011;40530;53.062;6.078;2023-03-01T11:28:20;10.77;;;8.32;;
53971;SDS011;40530;53.062;6.078;2023-03-01T11:33:18;12.68;;;8.82;;
53971;SDS011;40530;53.062;6.078;2023-03-01T11:35:53;9.48;;;8.48;;
53971;SDS011;40530;53.062;6.078;2023-03-01T11:41:03;9.73;;;8.13;;
53971;SDS011;40530;53.062;6.078;2023-03-01T11:48:47;17.15;;;10.88;;
53971;SDS011;40530;53.062;6.078;2023-03-01T11:51:23;15.55;;;9.73;;
53971;SDS011;40530;53.062;6.078;2023-03-01T11:53:54;12.20;;;8.30;;
53971;SDS011;40530;53.062;6.078;2023-03-01T11:58:55;14.38;;;8.25;;
53971;SDS011;40530;53.062;6.078;2023-03-01T12:09:05;14.45;;;8.52;;
53971;SDS011;40530;53.062;6.078;2023-03-01T12:11:43;11.32;;;8.57;;
53971;SDS011;40530;53.062;6.078;2023-03-01T12:22:17;12.20;;;9.55;;
53971;SDS011;40530;53.062;6.078;2023-03-01T12:24:57;19.35;;;13.10;;
53971;SDS011;40530;53.062;6.078;2023-03-01T12:40:19;11.68;;;9.15;;
53971;SDS011;40530;53.062;6.078;2023-03-01T12:43:32;12.15;;;9.32;;
53971;SDS011;40530;53.062;6.078;2023-03-01T12:50:52;15.88;;;11.63;;
53971;SDS011;40530;53.062;6.078;2023-03-01T12:53:29;13.25;;;9.23;;
53971;SDS011;40530;53.062;6.078;2023-03-01T12:56:10;13.02;;;8.13;;
53971;SDS011;40530;53.062;6.078;2023-03-01T13:01:41;14.98;;;9.85;;
53971;SDS011;40530;53.062;6.078;2023-03-01T13:04:20;13.43;;;8.93;;
53971;SDS011;40530;53.062;6.078;2023-03-01T13:11:59;13.48;;;9.52;;
53971;SDS011;40530;53.062;6.078;2023-03-01T13:16:51;12.52;;;9.63;;
53971;SDS011;40530;53.062;6.078;2023-03-01T13:19:19;14.32;;;9.48;;
53971;SDS011;40530;53.062;6.078;2023-03-01T13:21:46;15.38;;;10.77;;
53971;SDS011;40530;53.062;6.078;2023-03-01T13:27:37;13.60;;;10.82;;
53971;SDS011;40530;53.062;6.078;2023-03-01T13:29:51;17.77;;;11.35;;
53971;SDS011;40530;53.062;6.078;2023-03-01T13:32:21;14.05;;;10.23;;
53971;SDS011;40530;53.062;6.078;2023-03-01T13:34:49;14.13;;;9.50;;
53971;SDS011;40530;53.062;6.078;2023-03-01T13:37:35;15.05;;;10.60;;
53971;SDS011;40530;53.062;6.078;2023-03-01T13:40:04;15.65;;;11.38;;
53971;SDS011;40530;53.062;6.078;2023-03-01T13:42:31;13.05;;;10.07;;
53971;SDS011;40530;53.062;6.078;2023-03-01T13:44:59;14.38;;;9.68;;
53971;SDS011;40530;53.062;6.078;2023-03-01T13:47:26;12.43;;;9.35;;
53971;SDS011;40530;53.062;6.078;2023-03-01T13:49:56;14.25;;;10.10;;
53971;SDS011;40530;53.062;6.078;2023-03-01T13:54:58;15.45;;;9.85;;
53971;SDS011;40530;53.062;6.078;2023-03-01T13:57:28;14.68;;;9.98;;
53971;SDS011;40530;53.062;6.078;2023-03-01T13:59:56;12.20;;;9.40;;
53971;SDS011;40530;53.062;6.078;2023-03-01T14:02:22;10.90;;;9.25;;
53971;SDS011;40530;53.062;6.078;2023-03-01T14:05:00;13.43;;;9.13;;
53971;SDS011;40530;53.062;6.078;2023-03-01T14:07:27;13.15;;;9.75;;
53971;SDS011;40530;53.062;6.078;2023-03-01T14:09:56;14.50;;;9.55;;
53971;SDS011;40530;53.062;6.078;2023-03-01T14:20:16;15.57;;;9.30;;
53971;SDS011;40530;53.062;6.078;2023-03-01T14:22:43;12.77;;;8.55;;
53971;SDS011;40530;53.062;6.078;2023-03-01T14:25:29;10.23;;;8.30;;
53971;SDS011;40530;53.062;6.078;2023-03-01T14:27:57;12.48;;;8.85;;
53971;SDS011;40530;53.062;6.078;2023-03-01T14:30:30;13.73;;;9.55;;
53971;SDS011;40530;53.062;6.078;2023-03-01T14:32:58;10.93;;;8.50;;
53971;SDS011;40530;53.062;6.078;2023-03-01T14:35:28;10.65;;;8.85;;
53971;SDS011;40530;53.062;6.078;2023-03-01T14:37:55;12.00;;;8.98;;
53971;SDS011;40530;53.062;6.078;2023-03-01T14:42:50;12.63;;;8.75;;
53971;SDS011;40530;53.062;6.078;2023-03-01T14:45:17;12.70;;;9.55;;
53971;SDS011;40530;53.062;6.078;2023-03-01T14:47:43;10.80;;;8.45;;
53971;SDS011;40530;53.062;6.078;2023-03-01T14:50:16;13.00;;;8.18;;
53971;SDS011;40530;53.062;6.078;2023-03-01T14:52:46;11.70;;;9.48;;
53971;SDS011;40530;53.062;6.078;2023-03-01T14:55:25;12.73;;;9.15;;
53971;SDS011;40530;53.062;6.078;2023-03-01T14:57:52;11.95;;;9.05;;
53971;SDS011;40530;53.062;6.078;2023-03-01T15:02:44;10.68;;;8.85;;
53971;SDS011;40530;53.062;6.078;2023-03-01T15:05:13;13.55;;;9.43;;
53971;SDS011;40530;53.062;6.078;2023-03-01T15:07:40;12.02;;;9.23;;
53971;SDS011;40530;53.062;6.078;2023-03-01T15:10:13;13.40;;;9.93;;
53971;SDS011;40530;53.062;6.078;2023-03-01T15:12:41;13.38;;;9.63;;
53971;SDS011;40530;53.062;6.078;2023-03-01T15:15:53;12.18;;;9.68;;
53971;SDS011;40530;53.062;6.078;2023-03-01T15:17:58;10.88;;;8.77;;
53971;SDS011;40530;53.062;6.078;2023-03-01T15:20:26;12.88;;;9.68;;
53971;SDS011;40530;53.062;6.078;2023-03-01T15:22:54;9.77;;;8.63;;
53971;SDS011;40530;53.062;6.078;2023-03-01T15:25:22;13.90;;;9.85;;
53971;SDS011;40530;53.062;6.078;2023-03-01T15:27:49;12.68;;;9.38;;
53971;SDS011;40530;53.062;6.078;2023-03-01T15:32:44;12.68;;;9.82;;
53971;SDS011;40530;53.062;6.078;2023-03-01T15:43:40;12.50;;;8.88;;
53971;SDS011;40530;53.062;6.078;2023-03-01T15:46:44;12.05;;;8.98;;
53971;SDS011;40530;53.062;6.078;2023-03-01T15:49:04;13.30;;;9.55;;
53971;SDS011;40530;53.062;6.078;2023-03-01T15:51:35;13.18;;;8.63;;
53971;SDS011;40530;53.062;6.078;2023-03-01T15:54:08;14.33;;;9.00;;
53971;SDS011;40530;53.062;6.078;2023-03-01T15:56:37;12.45;;;9.35;;
53971;SDS011;40530;53.062;6.078;2023-03-01T15:59:03;12.05;;;9.55;;
53971;SDS011;40530;53.062;6.078;2023-03-01T16:01:30;12.85;;;9.43;;
53971;SDS011;40530;53.062;6.078;2023-03-01T16:03:59;14.30;;;9.82;;
53971;SDS011;40530;53.062;6.078;2023-03-01T16:06:25;13.63;;;9.45;;
53971;SDS011;40530;53.062;6.078;2023-03-01T16:08:51;12.55;;;9.55;;
53971;SDS011;40530;53.062;6.078;2023-03-01T16:11:18;14.85;;;11.40;;
53971;SDS011;40530;53.062;6.078;2023-03-01T16:13:45;15.75;;;9.90;;
53971;SDS011;40530;53.062;6.078;2023-03-01T16:16:12;16.00;;;11.07;;
53971;SDS011;40530;53.062;6.078;2023-03-01T16:18:40;15.63;;;11.00;;
53971;SDS011;40530;53.062;6.078;2023-03-01T16:21:06;15.40;;;11.13;;
53971;SDS011;40530;53.062;6.078;2023-03-01T16:23:32;17.17;;;11.35;;
53971;SDS011;40530;53.062;6.078;2023-03-01T16:25:59;14.98;;;11.18;;
53971;SDS011;40530;53.062;6.078;2023-03-01T16:28:25;13.75;;;11.32;;
53971;SDS011;40530;53.062;6.078;2023-03-01T16:30:51;19.83;;;12.07;;
53971;SDS011;40530;53.062;6.078;2023-03-01T16:33:18;15.30;;;11.10;;
53971;SDS011;40530;53.062;6.078;2023-03-01T16:35:44;16.50;;;9.98;;
53971;SDS011;40530;53.062;6.078;2023-03-01T16:38:10;13.55;;;10.77;;
53971;SDS011;40530;53.062;6.078;2023-03-01T16:40:36;16.67;;;11.00;;